Time;durP1;ratioP1;P1;durP2;ratioP2;P2;SDS_P1;SDS_P2;PMS_P1;PMS_P2;Temp;Humidity;BMP_temperature;BMP_pressure;BME280_temperature;BME280_humidity;BME280_pressure;Samples;Min_cycle;Max_cycle;Signal;HPM_P1;HPM_P2
2021/11/22 00:01:40;;;;;;;3.80;0.80;;;;;;;4.20;100.00;101810.31;10194787;28;20476;-70
2021/11/22 00:06:37;;;;;;;3.53;0.80;;;;;;;4.28;100.00;101812.59;10194220;28;20100;-69
2021/11/22 00:11:34;;;;;;;3.53;0.75;;;;;;;4.17;100.00;101811.63;10202954;28;20041;-71
2021/11/22 00:16:30;;;;;;;6.50;0.65;;;;;;;4.22;100.00;101824.41;10200367;28;20469;-70
2021/11/22 00:21:27;;;;;;;2.80;0.80;;;;;;;4.17;100.00;101835.16;10202919;28;20050;-70
2021/11/22 00:26:23;;;;;;;6.40;1.02;;;;;;;4.16;100.00;101844.38;10201063;28;20046;-70
2021/11/22 00:31:20;;;;;;;4.82;0.80;;;;;;;4.10;100.00;101845.34;10198651;28;20077;-68
2021/11/22 00:36:16;;;;;;;4.40;0.75;;;;;;;4.07;100.00;101851.25;10203412;28;20519;-68
2021/11/22 00:41:13;;;;;;;4.75;0.90;;;;;;;4.00;100.00;101852.22;10201151;28;20097;-68
2021/11/22 00:46:10;;;;;;;3.75;0.77;;;;;;;3.89;100.00;101855.03;10202220;28;20080;-68
2021/11/22 00:51:06;;;;;;;3.58;1.00;;;;;;;3.79;100.00;101872.72;10202122;28;20559;-69
2021/11/22 00:56:03;;;;;;;5.65;0.88;;;;;;;3.83;100.00;101875.78;10199268;28;20393;-69
2021/11/22 01:01:00;;;;;;;2.85;0.80;;;;;;;3.81;100.00;101875.19;10205497;28;20085;-69
2021/11/22 01:05:56;;;;;;;4.28;0.70;;;;;;;3.78;100.00;101892.72;10203472;28;20504;-68
2021/11/22 01:10:53;;;;;;;2.47;0.57;;;;;;;3.74;100.00;101907.00;10201882;28;20046;-69
2021/11/22 01:15:49;;;;;;;2.47;0.80;;;;;;;3.71;100.00;101923.69;10203434;28;20068;-69
2021/11/22 01:20:46;;;;;;;3.13;0.63;;;;;;;3.70;100.00;101938.28;10202450;28;20073;-68
2021/11/22 01:25:44;;;;;;;2.63;0.57;;;;;;;3.76;100.00;101945.41;10201929;28;20050;-69
2021/11/22 01:30:41;;;;;;;3.55;0.52;;;;;;;3.74;100.00;101944.88;10200319;28;20056;-68
2021/11/22 01:35:37;;;;;;;2.65;0.63;;;;;;;3.68;100.00;101964.75;10200434;28;20100;-69
2021/11/22 01:40:34;;;;;;;2.83;0.60;;;;;;;3.70;100.00;101965.34;10204221;28;20065;-68
2021/11/22 01:45:33;;;;;;;3.58;0.50;;;;;;;3.52;100.00;101969.84;10198778;28;20575;-68
2021/11/22 01:50:29;;;;;;;2.28;0.38;;;;;;;3.56;100.00;101981.84;10196818;28;20045;-68
2021/11/22 01:55:28;;;;;;;2.67;0.60;;;;;;;3.55;100.00;101984.75;10196546;28;20073;-68
2021/11/22 02:00:32;;;;;;;1.75;0.70;;;;;;;3.50;100.00;102004.41;10201136;28;20071;-68
2021/11/22 02:05:29;;;;;;;4.68;1.60;;;;;;;3.48;100.00;102005.72;11189136;23;20042;-68
2021/11/22 02:10:26;;;;;;;3.17;0.85;;;;;;;3.38;100.00;102012.56;10129666;28;20054;-69
2021/11/22 02:15:24;;;;;;;2.90;0.50;;;;;;;3.35;100.00;102017.63;10141669;28;20101;-69
2021/11/22 02:20:24;;;;;;;3.60;0.70;;;;;;;3.30;100.00;102012.13;10142847;28;20557;-69
2021/11/22 02:25:22;;;;;;;5.18;0.82;;;;;;;3.28;100.00;102011.53;10151405;28;20043;-69
2021/11/22 02:30:20;;;;;;;2.13;0.75;;;;;;;3.23;100.00;102020.34;10144286;28;20109;-69
2021/11/22 02:35:19;;;;;;;4.15;0.90;;;;;;;3.14;100.00;102033.38;10152267;28;20046;-70
2021/11/22 02:40:16;;;;;;;3.30;0.70;;;;;;;3.07;100.00;102038.09;10151629;28;20050;-70
2021/11/22 02:45:16;;;;;;;3.08;0.80;;;;;;;3.04;100.00;102049.38;10151356;28;20046;-71
2021/11/22 02:50:15;;;;;;;4.28;1.02;;;;;;;2.97;100.00;102062.19;10138107;28;20058;-69
2021/11/22 02:55:14;;;;;;;3.55;0.95;;;;;;;3.00;100.00;102061.72;10126527;28;20096;-71
2021/11/22 03:00:15;;;;;;;3.13;0.90;;;;;;;3.00;100.00;102069.00;10131608;28;20082;-70
2021/11/22 03:05:13;;;;;;;2.97;0.93;;;;;;;3.00;100.00;102074.41;10125211;28;20043;-69
2021/11/22 03:10:12;;;;;;;3.55;1.17;;;;;;;2.94;100.00;102076.16;10123405;28;20456;-70
2021/11/22 03:15:12;;;;;;;6.03;3.13;;;;;;;2.98;100.00;102082.72;10118260;28;20047;-71
2021/11/22 03:20:12;;;;;;;8.18;3.70;;;;;;;2.90;100.00;102080.34;10129992;28;20463;-69
2021/11/22 03:25:11;;;;;;;12.80;5.35;;;;;;;2.85;100.00;102091.03;10128503;28;20105;-69
2021/11/22 03:30:09;;;;;;;14.73;6.78;;;;;;;2.84;100.00;102098.34;10125650;28;20047;-69
2021/11/22 03:35:06;;;;;;;12.18;5.20;;;;;;;2.79;100.00;102094.69;10128519;28;20042;-69
2021/11/22 03:40:03;;;;;;;11.68;4.40;;;;;;;2.77;100.00;102097.63;10138507;28;20081;-69
2021/11/22 03:45:00;;;;;;;7.00;3.45;;;;;;;2.78;100.00;102103.84;10135977;28;20113;-69
2021/11/22 03:49:56;;;;;;;8.57;2.70;;;;;;;2.75;100.00;102099.72;10129947;28;20479;-69
2021/11/22 03:54:53;;;;;;;6.03;2.45;;;;;;;2.82;100.00;102110.44;10139988;28;20042;-68
2021/11/22 03:59:49;;;;;;;5.88;1.90;;;;;;;2.86;100.00;102112.44;10131996;28;20046;-68
2021/11/22 04:04:46;;;;;;;7.00;1.30;;;;;;;2.88;100.00;102120.31;10132020;28;20046;-70
2021/11/22 04:09:42;;;;;;;3.75;1.25;;;;;;;2.85;100.00;102134.28;10122078;28;20467;-70
2021/11/22 04:14:39;;;;;;;5.07;1.40;;;;;;;2.74;100.00;102131.31;10125696;28;20074;-68
2021/11/22 04:19:36;;;;;;;6.32;1.33;;;;;;;2.71;100.00;102142.56;10135717;28;20068;-71
2021/11/22 04:24:33;;;;;;;3.58;1.17;;;;;;;2.65;100.00;102148.91;10136200;28;20104;-72
2021/11/22 04:29:29;;;;;;;5.72;1.67;;;;;;;2.63;100.00;102145.59;10116919;28;20097;-69
2021/11/22 04:34:26;;;;;;;5.35;1.20;;;;;;;2.64;100.00;102160.75;10133073;28;20504;-69
2021/11/22 04:39:22;;;;;;;9.80;1.80;;;;;;;2.56;100.00;102160.25;10144147;28;20735;-69
2021/11/22 04:44:19;;;;;;;4.43;1.40;;;;;;;2.45;100.00;102168.06;10151183;28;20046;-70
2021/11/22 04:49:16;;;;;;;6.63;2.30;;;;;;;2.47;100.00;102179.47;10139830;28;20090;-70
2021/11/22 04:54:12;;;;;;;5.90;1.40;;;;;;;2.52;100.00;102189.59;10141742;28;20057;-70
2021/11/22 04:59:09;;;;;;;4.13;1.45;;;;;;;2.49;100.00;102192.75;10160709;28;20401;-70
2021/11/22 05:04:05;;;;;;;4.43;1.58;;;;;;;2.46;100.00;102195.88;10152099;28;20046;-70
2021/11/22 05:09:02;;;;;;;5.70;1.83;;;;;;;2.41;100.00;102201.13;10156215;28;20076;-71
2021/11/22 05:13:58;;;;;;;7.55;2.35;;;;;;;2.37;100.00;102202.63;10158500;28;20096;-71
2021/11/22 05:18:58;;;;;;;6.43;2.40;;;;;;;2.28;100.00;102213.75;10146519;28;20575;-71
2021/11/22 05:23:55;;;;;;;7.25;2.85;;;;;;;2.29;100.00;102219.97;10154066;28;20050;-72
2021/11/22 05:28:51;;;;;;;6.22;2.78;;;;;;;2.34;100.00;102227.41;10135315;28;20046;-68
2021/11/22 05:33:48;;;;;;;7.25;2.75;;;;;;;2.26;100.00;102221.25;10155109;28;20077;-68
2021/11/22 05:38:45;;;;;;;7.60;2.75;;;;;;;2.31;100.00;102239.47;10152480;28;20559;-69
2021/11/22 05:43:42;;;;;;;7.18;2.58;;;;;;;2.37;100.00;102248.53;10137456;28;20522;-69
2021/11/22 05:48:39;;;;;;;5.70;3.10;;;;;;;2.37;100.00;102240.44;10137727;28;20046;-68
2021/11/22 05:53:36;;;;;;;11.75;3.67;;;;;;;2.40;100.00;102248.09;10138594;28;20133;-70
2021/11/22 05:58:33;;;;;;;7.97;3.60;;;;;;;2.37;100.00;102259.31;10142907;28;20074;-69
2021/11/22 06:03:30;;;;;;;10.02;2.97;;;;;;;2.35;100.00;102261.44;10135661;28;20038;-69
2021/11/22 06:08:27;;;;;;;5.80;2.63;;;;;;;2.35;100.00;102273.06;10136865;28;20051;-69
2021/11/22 06:13:24;;;;;;;12.25;4.45;;;;;;;2.33;100.00;102277.03;10150670;28;20412;-68
2021/11/22 06:18:21;;;;;;;8.23;3.75;;;;;;;2.36;100.00;102284.69;10133118;28;20074;-68
2021/11/22 06:23:17;;;;;;;5.53;3.30;;;;;;;2.31;100.00;102288.88;10138522;28;20113;-69
2021/11/22 06:28:14;;;;;;;7.75;3.58;;;;;;;2.23;100.00;102296.47;10141888;28;20151;-69
2021/11/22 06:33:10;;;;;;;10.57;4.25;;;;;;;2.26;100.00;102302.22;10139291;28;20716;-68
2021/11/22 06:38:07;;;;;;;9.90;3.90;;;;;;;2.24;100.00;102315.09;10145962;28;20136;-68
2021/11/22 06:43:04;;;;;;;7.15;3.67;;;;;;;2.20;100.00;102324.69;10152281;28;20512;-68
2021/11/22 06:48:00;;;;;;;12.98;3.72;;;;;;;2.13;100.00;102340.13;10132218;28;20153;-67
2021/11/22 06:52:57;;;;;;;9.32;4.35;;;;;;;2.18;100.00;102343.00;10130700;28;20050;-68
2021/11/22 06:57:54;;;;;;;9.10;4.35;;;;;;;2.13;100.00;102347.41;10130791;28;20609;-67
2021/11/22 07:02:51;;;;;;;14.68;4.30;;;;;;;2.14;100.00;102347.19;10130781;28;20046;-67
2021/11/22 07:07:49;;;;;;;9.02;4.40;;;;;;;2.16;100.00;102361.28;10125953;28;20054;-67
2021/11/22 07:12:45;;;;;;;8.80;4.43;;;;;;;2.14;100.00;102363.38;10125310;28;20504;-68
2021/11/22 07:17:42;;;;;;;10.98;4.40;;;;;;;2.24;100.00;102371.78;10148457;28;20113;-70
2021/11/22 07:22:38;;;;;;;8.73;4.25;;;;;;;2.19;100.00;102382.44;10162687;28;20042;-68
2021/11/22 07:27:35;;;;;;;11.07;4.60;;;;;;;2.21;100.00;102385.72;10142744;28;20467;-67
2021/11/22 07:32:32;;;;;;;9.85;4.95;;;;;;;2.20;100.00;102397.56;10142711;28;20472;-67
2021/11/22 07:37:29;;;;;;;11.50;4.82;;;;;;;2.18;100.00;102407.78;10141776;28;20046;-67
2021/11/22 07:42:29;;;;;;;9.80;5.72;;;;;;;2.26;100.00;102410.19;10141757;28;20057;-68
2021/11/22 07:47:25;;;;;;;10.45;3.90;;;;;;;2.29;100.00;102415.13;10156080;28;20074;-67
2021/11/22 07:52:23;;;;;;;12.35;5.05;;;;;;;2.37;100.00;102418.59;10146249;28;20584;-68
2021/11/22 07:57:20;;;;;;;9.35;4.60;;;;;;;2.43;100.00;102417.72;10151337;28;20101;-67
2021/11/22 08:02:17;;;;;;;12.88;5.43;;;;;;;2.40;100.00;102426.28;10150100;28;20078;-69
2021/11/22 08:07:19;;;;;;;12.07;4.45;;;;;;;2.40;100.00;102426.28;10129652;28;20174;-70
2021/11/22 08:12:28;;;;;;;8.30;3.90;;;;;;;2.52;100.00;102432.59;10154986;28;20051;-68
2021/11/22 08:17:26;;;;;;;9.10;4.30;;;;;;;2.59;100.00;102430.66;10148373;28;20088;-69
2021/11/22 08:22:25;;;;;;;18.90;6.85;;;;;;;2.69;100.00;102441.78;10135590;28;20049;-68
2021/11/22 08:27:23;;;;;;;11.95;3.88;;;;;;;2.79;100.00;102451.25;10125523;28;20039;-68
2021/11/22 08:32:20;;;;;;;7.95;4.32;;;;;;;2.89;100.00;102451.56;10143951;28;20054;-67
2021/11/22 08:37:17;;;;;;;11.40;4.32;;;;;;;3.13;100.00;102464.19;10136627;28;20046;-67
2021/11/22 08:42:14;;;;;;;10.90;4.57;;;;;;;3.17;100.00;102464.56;10143482;28;20428;-68
2021/11/22 08:47:13;;;;;;;11.88;5.05;;;;;;;3.22;100.00;102466.59;10137988;28;20445;-68
2021/11/22 08:52:11;;;;;;;12.65;4.07;;;;;;;3.29;100.00;102478.16;10146038;28;20046;-68
2021/11/22 08:57:14;;;;;;;10.15;4.78;;;;;;;3.32;100.00;102480.41;10149948;28;20045;-68
2021/11/22 09:02:11;;;;;;;10.07;4.82;;;;;;;3.42;100.00;102483.41;10163113;28;20552;-67
2021/11/22 09:07:09;;;;;;;9.00;4.63;;;;;;;3.43;100.00;102485.03;10140107;28;20038;-68
2021/11/22 09:12:06;;;;;;;13.60;4.28;;;;;;;3.56;100.00;102495.72;10147325;28;20046;-69
2021/11/22 09:17:03;;;;;;;10.32;4.50;;;;;;;3.62;100.00;102503.97;10152868;28;20089;-69
2021/11/22 09:22:02;;;;;;;13.77;4.38;;;;;;;3.74;100.00;102507.56;10148626;28;20372;-69
2021/11/22 09:26:59;;;;;;;10.48;6.43;;;;;;;3.83;100.00;102511.63;10144393;28;20096;-69
2021/11/22 09:31:57;;;;;;;7.05;4.18;;;;;;;3.99;100.00;102519.09;10157511;28;20054;-69
2021/11/22 09:36:53;;;;;;;14.00;3.53;;;;;;;4.09;100.00;102517.72;10152195;28;20073;-68
2021/11/22 09:41:50;;;;;;;10.25;3.63;;;;;;;4.24;100.00;102520.81;10162235;28;20077;-69
2021/11/22 09:46:49;;;;;;;14.65;4.32;;;;;;;4.42;100.00;102526.16;10155971;28;20034;-69
2021/11/22 09:51:46;;;;;;;6.10;2.95;;;;;;;4.60;100.00;102527.16;10143868;28;20085;-69
2021/11/22 09:56:42;;;;;;;10.10;3.22;;;;;;;4.77;100.00;102528.09;10167096;28;20080;-69
2021/11/22 10:01:39;;;;;;;9.50;3.55;;;;;;;4.91;100.00;102522.47;10179513;28;20103;-69
2021/11/22 10:06:53;;;;;;;9.27;3.75;;;;;;;4.94;100.00;102527.41;10150946;28;20077;-69
2021/11/22 10:11:54;;;;;;;7.15;3.10;;;;;;;5.07;100.00;102516.31;10157253;28;20073;-69
2021/11/22 10:16:51;;;;;;;11.93;3.20;;;;;;;5.07;100.00;102516.31;10157192;28;20038;-69
2021/11/22 10:21:48;;;;;;;9.48;2.63;;;;;;;4.98;100.00;102517.75;10166314;28;20046;-69
2021/11/22 10:26:47;;;;;;;5.53;2.28;;;;;;;5.01;100.00;102528.09;10136723;28;20106;-69
2021/11/22 10:31:48;;;;;;;6.57;2.67;;;;;;;5.07;100.00;102529.88;10115445;28;20500;-69
2021/11/22 10:36:55;;;;;;;5.68;2.50;;;;;;;5.15;100.00;102524.13;10124662;28;20054;-69
2021/11/22 10:41:52;;;;;;;6.20;2.05;;;;;;;5.12;100.00;102523.75;10130913;28;20090;-69
2021/11/22 10:46:53;;;;;;;5.88;2.08;;;;;;;5.22;98.66;102522.09;10135303;28;20629;-69
2021/11/22 10:51:51;;;;;;;5.40;2.22;;;;;;;5.36;96.69;102519.09;10125218;28;20556;-69
2021/11/22 10:56:52;;;;;;;6.15;2.00;;;;;;;5.38;94.23;102516.97;10142927;28;20074;-68
2021/11/22 11:01:52;;;;;;;6.35;1.70;;;;;;;5.49;93.99;102525.09;10134300;28;20057;-69
2021/11/22 11:06:57;;;;;;;5.88;1.75;;;;;;;5.52;88.92;102534.66;10126541;28;20042;-69
2021/11/22 11:12:01;;;;;;;6.00;1.60;;;;;;;5.70;86.34;102510.06;10143777;28;20046;-69
2021/11/22 11:17:28;;;;;;;4.20;1.10;;;;;;;5.93;82.94;102516.47;10139034;28;20042;-69
2021/11/22 11:22:27;;;;;;;3.75;1.42;;;;;;;5.87;79.73;102510.13;10121613;28;20074;-69
2021/11/22 11:27:24;;;;;;;8.20;1.65;;;;;;;6.04;78.98;102510.19;10121092;28;20448;-69
2021/11/22 11:32:21;;;;;;;4.40;1.40;;;;;;;6.13;78.15;102512.50;10129878;28;20105;-68
2021/11/22 11:37:29;;;;;;;7.38;1.30;;;;;;;6.35;78.31;102524.31;10127587;28;20069;-69
2021/11/22 11:43:03;;;;;;;5.35;1.48;;;;;;;6.41;77.18;102523.34;10129211;28;20102;-68
2021/11/22 11:48:31;;;;;;;3.78;1.35;;;;;;;6.50;76.08;102523.78;10129951;28;20096;-68
2021/11/22 11:53:27;;;;;;;5.53;1.40;;;;;;;6.43;75.33;102517.66;10132505;28;20053;-68
2021/11/22 11:58:27;;;;;;;7.95;1.40;;;;;;;6.41;74.17;102517.94;10139474;28;20125;-68
2021/11/22 12:03:25;;;;;;;8.40;1.40;;;;;;;6.56;75.32;102516.53;10160409;28;20078;-69
2021/11/22 12:08:29;;;;;;;6.25;1.63;;;;;;;6.94;79.61;102508.44;10163021;28;20165;-68
2021/11/22 12:13:46;;;;;;;5.43;1.10;;;;;;;6.95;69.92;102515.50;10148585;28;20190;-68
2021/11/22 12:18:43;;;;;;;6.53;1.30;;;;;;;7.30;70.47;102522.53;10153059;28;20071;-68
2021/11/22 12:23:45;;;;;;;6.25;1.52;;;;;;;7.48;70.24;102513.25;10156033;28;20105;-68
2021/11/22 12:28:43;;;;;;;7.07;1.00;;;;;;;7.67;65.76;102510.22;10159393;28;20054;-68
2021/11/22 12:33:49;;;;;;;6.15;1.15;;;;;;;7.43;62.97;102523.25;10148546;28;20134;-68
2021/11/22 12:38:48;;;;;;;3.13;0.80;;;;;;;7.41;58.60;102519.97;10144110;28;20080;-68
2021/11/22 12:44:13;;;;;;;5.65;1.83;;;;;;;7.63;59.93;102520.78;10135020;28;20082;-68
2021/11/22 12:49:34;;;;;;;3.67;0.98;;;;;;;7.23;60.05;102516.44;10128433;28;20054;-68
2021/11/22 12:54:46;;;;;;;4.25;0.82;;;;;;;6.98;63.43;102516.09;10126506;28;20049;-68
2021/11/22 12:59:43;;;;;;;4.78;1.00;;;;;;;7.56;63.86;102509.25;10151464;28;20061;-66
2021/11/22 13:04:44;;;;;;;2.40;0.70;;;;;;;7.70;62.45;102501.53;10133723;28;20039;-68
2021/11/22 13:09:42;;;;;;;5.13;1.50;;;;;;;7.88;64.04;102505.81;10157193;28;20054;-68
2021/11/22 13:14:49;;;;;;;4.10;1.77;;;;;;;7.97;64.96;102493.38;10149476;28;20050;-67
2021/11/22 13:19:58;;;;;;;7.47;1.25;;;;;;;8.20;64.38;102489.53;10157141;28;20042;-68
2021/11/22 13:24:56;;;;;;;5.90;1.40;;;;;;;8.36;63.16;102490.50;10142510;28;20054;-68
2021/11/22 13:29:57;;;;;;;4.15;1.30;;;;;;;8.59;61.82;102490.16;10143578;28;20072;-68
2021/11/22 13:34:54;;;;;;;3.55;1.02;;;;;;;8.47;58.56;102492.25;10122318;28;20050;-68
2021/11/22 13:39:50;;;;;;;4.32;1.08;;;;;;;8.20;59.27;102497.69;10138276;28;20046;-66
2021/11/22 13:44:54;;;;;;;4.28;0.98;;;;;;;8.12;60.53;102496.28;10144286;28;20046;-66
2021/11/22 13:49:52;;;;;;;7.68;1.05;;;;;;;7.74;63.16;102500.75;10139563;28;20481;-66
2021/11/22 13:54:50;;;;;;;5.20;0.70;;;;;;;7.85;63.70;102506.34;10140369;28;20046;-68
2021/11/22 13:59:49;;;;;;;4.65;0.90;;;;;;;7.69;64.49;102502.63;10143504;28;20385;-67
2021/11/22 14:04:48;;;;;;;6.53;0.75;;;;;;;8.02;65.31;102504.31;10136643;28;20077;-68
2021/11/22 14:09:46;;;;;;;3.42;0.85;;;;;;;7.90;65.53;102499.03;10147278;28;20060;-68
2021/11/22 14:14:45;;;;;;;6.25;0.93;;;;;;;7.57;67.05;102502.75;10143724;28;20128;-67
2021/11/22 14:19:41;;;;;;;6.40;1.02;;;;;;;7.26;70.41;102505.06;10140473;28;20097;-67
2021/11/22 14:24:56;;;;;;;3.13;0.80;;;;;;;7.04;71.25;102506.94;10141615;28;20492;-67
2021/11/22 14:30:01;;;;;;;4.97;0.90;;;;;;;6.89;72.68;102511.09;10137114;28;20042;-67
2021/11/22 14:35:20;;;;;;;4.50;1.17;;;;;;;6.87;74.09;102513.22;10137196;28;20141;-70
2021/11/22 14:40:24;;;;;;;4.25;1.20;;;;;;;6.82;75.09;102515.84;10130142;28;20444;-69
2021/11/22 14:45:20;;;;;;;5.85;1.20;;;;;;;6.83;76.03;102522.13;10160355;28;20089;-70
2021/11/22 14:50:23;;;;;;;5.80;1.08;;;;;;;6.76;76.55;102516.03;10163322;28;20090;-67
2021/11/22 14:55:20;;;;;;;4.38;1.00;;;;;;;6.70;78.33;102523.28;10141032;28;20449;-67
2021/11/22 15:00:35;;;;;;;3.30;1.13;;;;;;;6.57;79.95;102523.59;10152573;28;20077;-68
2021/11/22 15:05:33;;;;;;;7.60;1.40;;;;;;;6.46;80.59;102528.88;10146693;28;20409;-69
2021/11/22 15:10:30;;;;;;;6.38;1.35;;;;;;;6.39;81.00;102521.97;10139925;28;20108;-68
2021/11/22 15:15:26;;;;;;;3.55;1.20;;;;;;;6.35;81.79;102526.22;10134329;28;20133;-68
2021/11/22 15:20:23;;;;;;;6.15;1.20;;;;;;;6.28;81.78;102526.38;10141844;28;20128;-67
2021/11/22 15:25:21;;;;;;;7.80;1.58;;;;;;;6.14;82.67;102531.28;10140153;28;20054;-68
2021/11/22 15:30:20;;;;;;;8.70;1.00;;;;;;;6.05;83.30;102528.13;10148101;28;20459;-67
2021/11/22 15:35:19;;;;;;;7.07;1.23;;;;;;;6.03;84.90;102538.41;10149649;28;20082;-69
2021/11/22 15:40:16;;;;;;;4.90;1.00;;;;;;;6.00;86.24;102530.75;10140950;28;20078;-68
2021/11/22 15:45:15;;;;;;;11.10;1.88;;;;;;;5.94;87.43;102531.75;10130797;28;20597;-68
2021/11/22 15:50:13;;;;;;;6.10;1.38;;;;;;;5.92;89.02;102528.41;10150491;28;20096;-69
2021/11/22 15:55:13;;;;;;;6.90;1.27;;;;;;;5.90;89.11;102538.69;10154639;28;20074;-68
2021/11/22 16:00:11;;;;;;;6.28;1.20;;;;;;;5.80;90.89;102544.75;10167242;28;20101;-68
2021/11/22 16:05:08;;;;;;;6.55;1.40;;;;;;;5.85;90.86;102549.47;10133108;28;20054;-66
2021/11/22 16:10:05;;;;;;;7.85;1.70;;;;;;;5.81;91.83;102542.84;10118743;28;20484;-66
2021/11/22 16:15:04;;;;;;;5.95;1.20;;;;;;;5.79;92.15;102544.97;10124059;28;20882;-67
2021/11/22 16:20:00;;;;;;;4.78;1.05;;;;;;;5.74;93.30;102550.31;10133206;28;20496;-68
2021/11/22 16:24:57;;;;;;;4.68;1.17;;;;;;;5.75;94.19;102543.81;10152967;28;20562;-68
2021/11/22 16:29:53;;;;;;;7.78;1.30;;;;;;;5.55;96.83;102541.50;10147541;28;20038;-68
2021/11/22 16:34:51;;;;;;;6.18;1.33;;;;;;;5.60;97.39;102547.03;10142668;28;20038;-68
2021/11/22 16:39:50;;;;;;;5.95;1.70;;;;;;;5.59;98.76;102538.09;10154546;28;20097;-69
2021/11/22 16:44:47;;;;;;;4.82;1.33;;;;;;;5.51;99.39;102538.44;10158554;28;20050;-69
2021/11/22 16:49:44;;;;;;;9.80;1.63;;;;;;;5.45;100.00;102533.94;10137922;28;20066;-68
2021/11/22 16:54:40;;;;;;;4.43;1.45;;;;;;;5.42;100.00;102539.88;10147710;28;20042;-69
2021/11/22 16:59:37;;;;;;;6.50;1.60;;;;;;;5.44;100.00;102543.16;10160647;28;20076;-69
2021/11/22 17:04:34;;;;;;;3.72;1.50;;;;;;;5.44;100.00;102543.16;10145925;28;20173;-68
2021/11/22 17:09:31;;;;;;;6.40;2.00;;;;;;;5.44;100.00;102540.47;10147080;28;20063;-68
2021/11/22 17:14:27;;;;;;;6.53;1.50;;;;;;;5.20;100.00;102554.06;10139219;28;20100;-69
2021/11/22 17:19:24;;;;;;;7.20;1.50;;;;;;;5.19;100.00;102557.81;10132490;28;20090;-68
2021/11/22 17:24:21;;;;;;;6.10;1.65;;;;;;;5.30;100.00;102558.06;10147212;28;20074;-69
2021/11/22 17:29:19;;;;;;;6.85;1.50;;;;;;;5.26;100.00;102546.84;10154961;28;20100;-68
2021/11/22 17:34:17;;;;;;;5.93;1.80;;;;;;;5.23;100.00;102552.75;10158743;28;21598;-68
2021/11/22 17:39:14;;;;;;;7.00;1.40;;;;;;;5.22;100.00;102546.50;10151485;28;20045;-68
2021/11/22 17:44:11;;;;;;;6.95;1.45;;;;;;;5.24;100.00;102543.53;10161686;28;20489;-68
2021/11/22 17:49:07;;;;;;;12.15;2.75;;;;;;;5.21;100.00;102539.41;10162438;28;20136;-68
2021/11/22 17:54:04;;;;;;;8.95;1.77;;;;;;;5.17;100.00;102538.22;10168426;28;20074;-68
2021/11/22 17:59:00;;;;;;;5.90;1.88;;;;;;;5.20;100.00;102543.19;10148226;28;20037;-69
2021/11/22 18:03:57;;;;;;;6.45;1.77;;;;;;;5.20;100.00;102537.78;10135950;28;20054;-69
2021/11/22 18:08:54;;;;;;;8.18;2.33;;;;;;;5.27;100.00;102527.63;10131297;28;20078;-69
2021/11/22 18:13:50;;;;;;;6.43;2.40;;;;;;;5.21;100.00;102528.56;10131508;28;20112;-69
2021/11/22 18:18:48;;;;;;;7.28;2.15;;;;;;;5.21;100.00;102522.31;10128888;28;20145;-69
2021/11/22 18:23:46;;;;;;;6.22;1.88;;;;;;;5.15;100.00;102534.97;10125016;28;20077;-68
2021/11/22 18:28:43;;;;;;;5.47;2.40;;;;;;;5.17;100.00;102553.69;10124663;28;20121;-68
2021/11/22 18:33:39;;;;;;;6.72;2.45;;;;;;;5.18;100.00;102550.75;10135239;28;20149;-68
2021/11/22 18:38:36;;;;;;;10.02;2.95;;;;;;;5.21;100.00;102544.84;10127928;28;20145;-68
2021/11/22 18:43:34;;;;;;;8.38;2.90;;;;;;;5.08;100.00;102545.06;10143591;28;20534;-68
2021/11/22 18:48:31;;;;;;;8.88;2.70;;;;;;;4.98;100.00;102544.84;10154280;28;20597;-68
2021/11/22 18:53:28;;;;;;;7.88;2.70;;;;;;;4.97;100.00;102548.63;10139659;28;20065;-68
2021/11/22 18:58:24;;;;;;;8.18;2.20;;;;;;;4.98;100.00;102555.69;10159194;28;20086;-68
2021/11/22 19:03:21;;;;;;;8.30;2.30;;;;;;;4.95;100.00;102562.41;10155814;28;20073;-68
2021/11/22 19:08:18;;;;;;;8.25;2.33;;;;;;;4.95;100.00;102556.16;10143895;28;20047;-68
2021/11/22 19:13:15;;;;;;;6.45;2.60;;;;;;;4.87;100.00;102565.47;10159530;28;20046;-68
2021/11/22 19:18:11;;;;;;;9.10;2.53;;;;;;;4.88;100.00;102561.69;10134452;28;20039;-68
2021/11/22 19:23:08;;;;;;;7.28;2.10;;;;;;;4.85;100.00;102557.56;10123732;28;20137;-69
2021/11/22 19:28:04;;;;;;;11.05;2.40;;;;;;;4.74;100.00;102560.28;10134094;28;20054;-69
2021/11/22 19:33:01;;;;;;;6.40;2.40;;;;;;;4.71;100.00;102550.72;10137986;28;20093;-69
2021/11/22 19:37:58;;;;;;;12.55;3.10;;;;;;;4.75;100.00;102549.19;10134629;28;20458;-69
2021/11/22 19:42:55;;;;;;;10.60;2.95;;;;;;;4.68;100.00;102545.75;10138169;28;20566;-69
2021/11/22 19:47:51;;;;;;;6.93;2.60;;;;;;;4.63;100.00;102548.34;10132475;28;20068;-69
2021/11/22 19:52:50;;;;;;;10.02;2.40;;;;;;;4.64;100.00;102547.28;10135643;28;20069;-69
2021/11/22 19:57:47;;;;;;;7.32;2.10;;;;;;;4.59;100.00;102547.16;10139364;28;20650;-69
2021/11/22 20:02:44;;;;;;;6.95;2.28;;;;;;;4.59;100.00;102544.44;10128727;28;20042;-69
2021/11/22 20:07:42;;;;;;;7.90;2.40;;;;;;;4.65;100.00;102551.66;10137661;28;20444;-68
2021/11/22 20:12:39;;;;;;;7.03;2.17;;;;;;;4.62;100.00;102542.09;10133290;28;20516;-68
2021/11/22 20:17:36;;;;;;;9.82;3.00;;;;;;;4.64;100.00;102540.00;10135226;28;20050;-69
2021/11/22 20:22:41;;;;;;;6.45;2.50;;;;;;;4.62;100.00;102542.09;10134892;28;20057;-69
2021/11/22 20:27:39;;;;;;;8.35;2.17;;;;;;;4.62;100.00;102554.84;10144573;28;20050;-68
2021/11/22 20:32:37;;;;;;;10.68;2.75;;;;;;;4.62;100.00;102542.09;10144579;28;20054;-69
2021/11/22 20:37:34;;;;;;;9.15;2.70;;;;;;;4.64;100.00;102544.56;10149609;28;20097;-69
2021/11/22 20:42:31;;;;;;;7.95;2.42;;;;;;;4.63;100.00;102532.09;10148621;28;20042;-69
2021/11/22 20:47:27;;;;;;;10.98;2.50;;;;;;;4.55;100.00;102529.72;10142616;28;20077;-69
2021/11/22 20:52:24;;;;;;;9.10;2.83;;;;;;;4.72;100.00;102514.44;10145225;28;20503;-69
2021/11/22 20:57:20;;;;;;;10.20;2.42;;;;;;;4.79;100.00;102509.72;10151663;28;20049;-69
2021/11/22 21:02:19;;;;;;;8.00;2.08;;;;;;;4.82;100.00;102517.38;10163391;28;20046;-69
2021/11/22 21:07:16;;;;;;;9.05;2.42;;;;;;;4.81;100.00;102523.88;10153702;28;20046;-69
2021/11/22 21:12:12;;;;;;;8.38;2.65;;;;;;;4.83;100.00;102538.00;10174894;28;20051;-69
2021/11/22 21:17:09;;;;;;;5.80;1.80;;;;;;;4.77;100.00;102532.69;10153846;28;20070;-69
2021/11/22 21:22:06;;;;;;;6.72;1.92;;;;;;;4.64;100.00;102531.03;10137415;28;20045;-72
2021/11/22 21:27:04;;;;;;;7.55;2.63;;;;;;;4.56;100.00;102532.19;10143571;28;20052;-72
2021/11/22 21:32:02;;;;;;;9.30;2.10;;;;;;;4.46;100.00;102536.56;10141554;28;20042;-71
2021/11/22 21:37:00;;;;;;;8.20;2.30;;;;;;;4.47;100.00;102532.78;10138551;28;20054;-71
2021/11/22 21:41:57;;;;;;;11.15;2.63;;;;;;;4.53;100.00;102527.25;10136691;28;20108;-72
2021/11/22 21:46:54;;;;;;;7.88;2.25;;;;;;;4.52;100.00;102530.19;10136888;28;20138;-71
2021/11/22 21:51:50;;;;;;;7.68;2.45;;;;;;;4.57;100.00;102533.00;10138837;28;20049;-70
2021/11/22 21:56:47;;;;;;;7.32;2.15;;;;;;;4.59;100.00;102525.47;10140351;28;20093;-70
2021/11/22 22:01:45;;;;;;;9.23;2.50;;;;;;;4.65;100.00;102524.56;10156267;28;20459;-70
2021/11/22 22:06:43;;;;;;;9.02;2.45;;;;;;;4.73;100.00;102521.50;10137709;28;20524;-70
2021/11/22 22:11:41;;;;;;;11.02;2.80;;;;;;;4.71;100.00;102520.94;10166435;28;20096;-70
2021/11/22 22:16:49;;;;;;;12.02;2.58;;;;;;;4.61;100.00;102528.78;10163972;28;20455;-70
2021/11/22 22:21:47;;;;;;;8.50;2.88;;;;;;;4.72;100.00;102514.44;10165105;28;20038;-71
2021/11/22 22:27:05;;;;;;;7.90;2.00;;;;;;;4.79;100.00;102509.72;10147980;28;20052;-70
2021/11/22 22:32:02;;;;;;;14.43;2.50;;;;;;;4.90;100.00;102524.34;10157621;28;20056;-71
2021/11/22 22:37:01;;;;;;;7.60;2.90;;;;;;;4.96;100.00;102530.69;10161984;28;20041;-70
2021/11/22 22:41:58;;;;;;;11.13;2.80;;;;;;;5.10;100.00;102521.25;10158287;28;20045;-72
2021/11/22 22:46:55;;;;;;;9.13;1.90;;;;;;;5.14;100.00;102517.03;10159686;28;20116;-71
2021/11/22 22:51:51;;;;;;;7.53;2.30;;;;;;;5.18;100.00;102510.06;10155638;28;20049;-71